Time;durP1;ratioP1;P1;durP2;ratioP2;P2;SDS_P1;SDS_P2;PMS_P1;PMS_P2;Temp;Humidity;BMP_temperature;BMP_pressure;BME280_temperature;BME280_humidity;BME280_pressure;Samples;Min_cycle;Max_cycle;Signal;HPM_P1;HPM_P2
2021/01/08 00:00:10;;;;;;;9.25;6.53;;;1.30;99.90;;;;;;5051620;28;20921;-78
2021/01/08 00:02:35;;;;;;;8.13;5.75;;;1.30;99.90;;;;;;5051329;28;20417;-76
2021/01/08 00:05:02;;;;;;;9.57;6.25;;;2.20;99.90;;;;;;5050673;28;20897;-75
2021/01/08 00:07:27;;;;;;;8.07;5.95;;;1.90;99.90;;;;;;5049951;28;20397;-76
2021/01/08 00:09:53;;;;;;;9.23;6.32;;;1.00;99.90;;;;;;5051852;28;20838;-76
2021/01/08 00:12:18;;;;;;;11.13;6.70;;;1.90;99.90;;;;;;5049862;28;20451;-76
2021/01/08 00:14:44;;;;;;;8.10;5.53;;;2.80;99.90;;;;;;5052082;28;20392;-76
2021/01/08 00:17:10;;;;;;;10.87;7.03;;;3.10;99.90;;;;;;5050978;28;20753;-75
2021/01/08 00:19:35;;;;;;;7.70;5.47;;;3.40;99.90;;;;;;5051411;28;20381;-76
2021/01/08 00:22:01;;;;;;;10.13;6.60;;;1.30;99.90;;;;;;5051690;28;20412;-76
2021/01/08 00:24:27;;;;;;;7.30;5.70;;;2.10;99.90;;;;;;5050558;28;20393;-75
2021/01/08 00:26:54;;;;;;;8.02;5.90;;;1.40;99.90;;;;;;5051637;28;20385;-76
2021/01/08 00:29:20;;;;;;;9.02;6.30;;;2.80;99.90;;;;;;5050636;28;20389;-76
2021/01/08 00:31:47;;;;;;;8.55;5.72;;;2.00;99.90;;;;;;5051632;28;20853;-75
2021/01/08 00:34:17;;;;;;;10.93;6.43;;;0.90;99.90;;;;;;5050677;28;20381;-78
2021/01/08 00:36:53;;;;;;;8.45;6.40;;;3.60;99.90;;;;;;5051368;28;20382;-73
2021/01/08 00:39:20;;;;;;;10.47;5.80;;;1.70;99.90;;;;;;5050585;28;20397;-75
2021/01/08 00:41:47;;;;;;;7.33;5.50;;;1.50;99.90;;;;;;5051038;28;20409;-75
2021/01/08 00:44:13;;;;;;;10.02;7.13;;;1.60;99.90;;;;;;5050726;28;20439;-76
2021/01/08 00:46:40;;;;;;;10.85;6.78;;;1.50;99.90;;;;;;5051185;28;20503;-74
2021/01/08 00:49:07;;;;;;;9.63;6.82;;;3.10;99.90;;;;;;5050961;28;20414;-74
2021/01/08 00:51:33;;;;;;;9.20;6.80;;;1.10;99.90;;;;;;5050088;28;20374;-74
2021/01/08 00:53:59;;;;;;;10.45;7.32;;;1.40;99.90;;;;;;5051138;28;20389;-74
2021/01/08 00:56:25;;;;;;;10.05;6.60;;;1.60;99.90;;;;;;5049035;28;20416;-74
2021/01/08 00:58:51;;;;;;;9.73;6.40;;;3.70;99.90;;;;;;5051183;28;20408;-74
2021/01/08 01:01:17;;;;;;;7.60;5.70;;;0.80;99.90;;;;;;5050046;28;20394;-75
2021/01/08 01:03:44;;;;;;;8.25;6.40;;;2.80;99.90;;;;;;5050887;28;20877;-74
2021/01/08 01:06:09;;;;;;;10.07;6.97;;;3.00;99.90;;;;;;5049657;28;20405;-74
2021/01/08 01:08:35;;;;;;;8.80;5.97;;;2.30;99.90;;;;;;5048948;28;20393;-75
2021/01/08 01:11:01;;;;;;;10.18;6.97;;;1.50;99.90;;;;;;5050857;28;20775;-74
2021/01/08 01:13:27;;;;;;;9.35;6.25;;;1.60;99.90;;;;;;5050020;28;20873;-74
2021/01/08 01:15:53;;;;;;;11.07;7.17;;;1.10;99.90;;;;;;5050805;28;20430;-74
2021/01/08 01:18:19;;;;;;;8.90;6.00;;;1.20;99.90;;;;;;5049808;28;20424;-75
2021/01/08 01:20:46;;;;;;;10.48;6.82;;;3.30;99.90;;;;;;5050442;28;20377;-74
2021/01/08 01:23:12;;;;;;;8.57;5.70;;;1.50;99.90;;;;;;5050681;28;20405;-76
2021/01/08 01:25:37;;;;;;;9.00;6.20;;;1.20;99.90;;;;;;5049863;28;20385;-74
2021/01/08 01:28:03;;;;;;;9.60;6.30;;;3.20;99.90;;;;;;5050419;28;20436;-74
2021/01/08 01:30:31;;;;;;;9.20;6.65;;;1.40;99.90;;;;;;5049837;28;20392;-74
2021/01/08 01:32:58;;;;;;;7.95;6.10;;;1.40;99.90;;;;;;5050859;28;20421;-74
2021/01/08 01:35:24;;;;;;;10.57;6.18;;;1.30;99.90;;;;;;5049622;28;20400;-74
2021/01/08 01:37:51;;;;;;;9.60;6.80;;;1.40;99.90;;;;;;5050777;28;20374;-74
2021/01/08 01:40:17;;;;;;;8.43;5.80;;;1.50;99.90;;;;;;5049391;28;20739;-75
2021/01/08 01:42:43;;;;;;;9.13;6.20;;;2.10;99.90;;;;;;5050203;28;20413;-75
2021/01/08 01:45:09;;;;;;;8.90;6.10;;;3.10;99.90;;;;;;5050219;28;20412;-75
2021/01/08 01:47:35;;;;;;;9.88;7.00;;;1.40;99.90;;;;;;5049644;28;20842;-75
2021/01/08 01:50:01;;;;;;;7.82;6.35;;;1.60;99.90;;;;;;5048020;28;20750;-75
2021/01/08 01:52:27;;;;;;;8.05;5.72;;;2.90;99.90;;;;;;5049299;28;20377;-75
2021/01/08 01:54:53;;;;;;;7.70;5.88;;;1.60;99.90;;;;;;5050713;28;20395;-75
2021/01/08 01:57:19;;;;;;;8.07;5.78;;;1.30;99.90;;;;;;5049595;28;20381;-75
2021/01/08 01:59:45;;;;;;;8.37;6.23;;;1.80;99.90;;;;;;5050505;28;20381;-75
2021/01/08 02:02:25;;;;;;;7.60;6.03;;;2.90;99.90;;;;;;5048637;28;20479;-75
2021/01/08 02:04:54;;;;;;;8.00;5.78;;;1.20;99.90;;;;;;5049257;28;20469;-75
2021/01/08 02:07:21;;;;;;;7.88;6.30;;;3.20;99.90;;;;;;5049407;28;20773;-75
2021/01/08 02:09:49;;;;;;;9.18;7.07;;;1.40;99.90;;;;;;5050327;28;20404;-75
2021/01/08 02:12:15;;;;;;;9.38;7.00;;;1.00;99.90;;;;;;5049976;28;20858;-75
2021/01/08 02:14:44;;;;;;;8.63;5.93;;;1.20;99.90;;;;;;5049502;28;20387;-74
2021/01/08 02:17:13;;;;;;;10.07;6.60;;;2.10;99.90;;;;;;5050231;28;20397;-75
2021/01/08 02:19:49;;;;;;;8.23;6.32;;;3.50;99.90;;;;;;5049540;28;20388;-75
2021/01/08 02:22:45;;;;;;;8.50;6.80;;;1.40;99.90;;;;;;5050156;28;20409;-75
2021/01/08 02:25:13;;;;;;;8.50;6.13;;;1.50;99.90;;;;;;5049141;28;20401;-75
2021/01/08 02:27:41;;;;;;;8.60;6.40;;;1.40;99.90;;;;;;5052983;28;20373;-75
2021/01/08 02:30:08;;;;;;;7.60;5.72;;;1.60;99.90;;;;;;5053564;28;20384;-75
2021/01/08 02:32:34;;;;;;;9.10;6.70;;;1.40;99.90;;;;;;5052471;28;20862;-75
2021/01/08 02:35:02;;;;;;;8.95;6.55;;;1.60;99.90;;;;;;5053710;28;20435;-75
2021/01/08 02:37:38;;;;;;;9.77;6.83;;;1.20;99.90;;;;;;5052976;28;20377;-75
2021/01/08 02:40:04;;;;;;;8.15;6.00;;;2.90;99.90;;;;;;5053314;28;20405;-75
2021/01/08 02:42:32;;;;;;;11.17;6.60;;;1.90;99.90;;;;;;5052352;28;20409;-75
2021/01/08 02:44:58;;;;;;;7.40;5.75;;;1.20;99.90;;;;;;5053096;28;20408;-75
2021/01/08 02:47:24;;;;;;;7.80;6.07;;;1.20;99.90;;;;;;5051684;28;20421;-76
2021/01/08 02:49:49;;;;;;;9.80;6.38;;;0.90;99.90;;;;;;5052882;28;20443;-75
2021/01/08 02:52:16;;;;;;;9.50;6.10;;;1.00;99.90;;;;;;5052455;28;20401;-75
2021/01/08 02:54:41;;;;;;;12.20;7.32;;;0.90;99.90;;;;;;5052015;28;20471;-75
2021/01/08 02:57:09;;;;;;;9.75;6.63;;;;;;;;;;5052849;28;20465;-75
2021/01/08 02:59:35;;;;;;;9.38;6.20;;;0.60;99.90;;;;;;5050298;28;20375;-75
2021/01/08 03:02:01;;;;;;;8.33;6.47;;;1.40;99.90;;;;;;5052798;28;20405;-75
2021/01/08 03:04:28;;;;;;;10.10;5.27;;;1.10;99.90;;;;;;5051970;28;20708;-75
2021/01/08 03:06:53;;;;;;;8.27;6.15;;;1.10;99.90;;;;;;5052637;28;20377;-75
2021/01/08 03:09:20;;;;;;;7.73;5.30;;;2.90;99.90;;;;;;5052668;28;20389;-76
2021/01/08 03:11:57;;;;;;;10.07;6.78;;;0.90;99.90;;;;;;5052151;28;20381;-75
2021/01/08 03:14:23;;;;;;;7.45;5.53;;;0.80;99.90;;;;;;5049721;28;20421;-76
2021/01/08 03:16:52;;;;;;;7.10;5.40;;;0.80;99.90;;;;;;5052054;28;20934;-75
2021/01/08 03:19:18;;;;;;;9.27;5.85;;;0.50;99.90;;;;;;5052369;28;20395;-75
2021/01/08 03:21:43;;;;;;;6.90;5.00;;;0.50;99.90;;;;;;5051621;28;20416;-75
2021/01/08 03:24:11;;;;;;;7.47;5.88;;;2.80;99.90;;;;;;5052415;28;20428;-75
2021/01/08 03:26:36;;;;;;;8.77;5.70;;;0.70;99.90;;;;;;5051398;28;20411;-75
2021/01/08 03:29:03;;;;;;;8.00;5.40;;;;;;;;;;5067704;28;20462;-75
2021/01/08 03:31:29;;;;;;;8.13;5.53;;;;;;;;;;5051402;28;20381;-75
2021/01/08 03:33:54;;;;;;;7.63;5.28;;;0.80;99.90;;;;;;5052294;28;20389;-75
2021/01/08 03:36:20;;;;;;;8.50;5.70;;;0.60;99.90;;;;;;5048682;28;20370;-76
2021/01/08 03:38:46;;;;;;;9.07;5.77;;;0.50;99.90;;;;;;5050674;28;20397;-75
2021/01/08 03:41:11;;;;;;;9.75;5.78;;;1.10;99.90;;;;;;5050028;28;20406;-75
2021/01/08 03:43:37;;;;;;;7.80;6.00;;;0.30;99.90;;;;;;5050800;28;20397;-75
2021/01/08 03:46:05;;;;;;;6.10;5.00;;;0.60;99.90;;;;;;5051333;28;20393;-75
2021/01/08 03:48:30;;;;;;;7.97;4.97;;;0.40;99.90;;;;;;5050771;28;20734;-75
2021/01/08 03:50:57;;;;;;;9.75;5.68;;;0.50;99.90;;;;;;5051408;28;20397;-75
2021/01/08 03:53:22;;;;;;;9.83;5.20;;;0.50;99.90;;;;;;5051565;28;20377;-76
2021/01/08 03:55:48;;;;;;;7.63;5.13;;;0.30;99.90;;;;;;5049781;28;20454;-74
2021/01/08 03:58:16;;;;;;;6.70;5.00;;;0.40;99.90;;;;;;5051389;28;20472;-75
2021/01/08 04:00:42;;;;;;;8.35;5.60;;;0.40;99.90;;;;;;5045725;28;21244;-75
2021/01/08 04:03:08;;;;;;;8.68;4.90;;;0.50;99.90;;;;;;5051327;28;20406;-75
2021/01/08 04:05:33;;;;;;;7.30;5.25;;;0.40;99.90;;;;;;5051128;28;20393;-75
2021/01/08 04:07:59;;;;;;;8.00;5.40;;;0.40;99.90;;;;;;5051371;28;20727;-75
2021/01/08 04:10:25;;;;;;;6.80;5.00;;;0.20;99.90;;;;;;5051745;28;20394;-77
2021/01/08 04:12:53;;;;;;;7.67;5.10;;;0.20;99.90;;;;;;5050888;28;20381;-75
2021/01/08 04:15:19;;;;;;;8.85;5.45;;;0.80;99.90;;;;;;5051187;28;20393;-76
2021/01/08 04:17:44;;;;;;;5.80;4.30;;;0.50;99.90;;;;;;5050973;28;20377;-75
2021/01/08 04:20:10;;;;;;;8.63;5.70;;;0.60;99.90;;;;;;5050398;28;20393;-75
2021/01/08 04:22:36;;;;;;;9.60;5.57;;;0.60;99.90;;;;;;5050530;28;20411;-75
2021/01/08 04:25:03;;;;;;;9.13;5.85;;;0.30;99.90;;;;;;5050012;28;20875;-76
2021/01/08 04:27:29;;;;;;;8.60;5.28;;;0.60;99.90;;;;;;5047355;28;20400;-75
2021/01/08 04:29:54;;;;;;;9.27;5.83;;;1.40;99.90;;;;;;5051395;28;20380;-75
2021/01/08 04:32:20;;;;;;;7.57;5.20;;;0.60;99.90;;;;;;5051370;28;20492;-75
2021/01/08 04:34:45;;;;;;;8.83;5.10;;;2.80;99.90;;;;;;5050599;28;20392;-75
2021/01/08 04:37:11;;;;;;;7.53;5.05;;;0.90;99.90;;;;;;5048414;28;20406;-76
2021/01/08 04:39:37;;;;;;;6.78;4.85;;;0.60;99.90;;;;;;5049365;28;20382;-75
2021/01/08 04:42:02;;;;;;;8.13;5.35;;;3.20;99.90;;;;;;5049834;28;20413;-75
2021/01/08 04:44:30;;;;;;;7.82;5.18;;;0.60;99.90;;;;;;5050565;28;20381;-76
2021/01/08 04:46:56;;;;;;;6.63;4.40;;;0.80;99.90;;;;;;5051401;28;20439;-75
2021/01/08 04:49:22;;;;;;;4.97;3.90;;;0.80;99.90;;;;;;5050714;28;20925;-75
2021/01/08 04:51:48;;;;;;;5.47;4.20;;;0.70;99.90;;;;;;5050416;28;20436;-74
2021/01/08 04:54:14;;;;;;;6.00;4.30;;;0.60;99.90;;;;;;5050674;28;20858;-74
2021/01/08 04:56:45;;;;;;;5.97;4.55;;;1.90;99.90;;;;;;5050200;28;21113;-74
2021/01/08 04:59:11;;;;;;;5.95;4.65;;;0.60;99.90;;;;;;5048566;28;20461;-74
2021/01/08 05:01:37;;;;;;;7.03;4.90;;;0.80;99.90;;;;;;5049821;28;20409;-74
2021/01/08 05:04:03;;;;;;;7.40;4.68;;;0.90;99.90;;;;;;5050685;28;20402;-73
2021/01/08 05:06:29;;;;;;;4.68;3.63;;;0.90;99.90;;;;;;5050462;28;20465;-76
2021/01/08 05:08:55;;;;;;;6.10;3.80;;;2.10;99.90;;;;;;5050759;28;20381;-74
2021/01/08 05:11:23;;;;;;;5.63;3.90;;;3.00;99.90;;;;;;5050866;28;20382;-74
2021/01/08 05:13:54;;;;;;;5.30;3.60;;;2.10;99.90;;;;;;5049968;28;20401;-74
2021/01/08 05:16:21;;;;;;;6.13;4.40;;;0.90;99.90;;;;;;5050455;28;20498;-74
2021/01/08 05:18:48;;;;;;;4.87;4.00;;;1.50;99.90;;;;;;5044906;28;20374;-75
2021/01/08 05:21:15;;;;;;;4.88;4.00;;;0.70;99.90;;;;;;5050740;28;20476;-74
2021/01/08 05:23:40;;;;;;;6.63;4.40;;;2.10;99.90;;;;;;5050043;28;20396;-74
2021/01/08 05:26:06;;;;;;;6.93;3.95;;;1.30;99.90;;;;;;5047180;28;20388;-74
2021/01/08 05:28:32;;;;;;;5.43;4.00;;;0.90;99.90;;;;;;5050108;28;20384;-74
2021/01/08 05:31:04;;;;;;;6.03;3.70;;;0.90;99.90;;;;;;5050279;28;20378;-74
2021/01/08 05:33:30;;;;;;;6.80;3.50;;;0.80;99.90;;;;;;5050259;28;20473;-77
2021/01/08 05:35:58;;;;;;;5.15;3.83;;;1.90;99.90;;;;;;5049985;28;20460;-75
2021/01/08 05:38:25;;;;;;;5.00;3.20;;;1.20;99.90;;;;;;5050317;28;20455;-74
2021/01/08 05:40:59;;;;;;;5.32;3.80;;;3.20;99.90;;;;;;5046827;28;20403;-75
2021/01/08 05:43:25;;;;;;;5.90;3.60;;;3.10;99.90;;;;;;5048344;28;20401;-75
2021/01/08 05:45:51;;;;;;;5.00;3.50;;;1.50;99.90;;;;;;5049203;28;20463;-74
2021/01/08 05:48:18;;;;;;;5.90;3.67;;;0.90;99.90;;;;;;5050106;28;20868;-75
2021/01/08 05:50:44;;;;;;;4.28;3.40;;;0.80;99.90;;;;;;5049263;28;20464;-75
2021/01/08 05:53:11;;;;;;;5.05;3.60;;;0.60;99.90;;;;;;5048931;28;20393;-74
2021/01/08 05:55:41;;;;;;;5.60;3.70;;;0.90;99.90;;;;;;5049196;28;20389;-75
2021/01/08 05:58:18;;;;;;;6.15;4.13;;;1.40;99.90;;;;;;5050183;28;20389;-75
2021/01/08 06:00:52;;;;;;;5.15;3.67;;;0.90;99.90;;;;;;5048513;28;20377;-74
2021/01/08 06:03:20;;;;;;;6.35;4.40;;;0.90;99.90;;;;;;5053738;28;20413;-74
2021/01/08 06:05:46;;;;;;;4.38;3.70;;;1.20;99.90;;;;;;5053485;28;20394;-74
2021/01/08 06:08:14;;;;;;;5.03;4.00;;;1.20;99.90;;;;;;5053870;28;20858;-74
2021/01/08 06:10:44;;;;;;;5.05;3.58;;;0.70;99.90;;;;;;5042115;28;21097;-75
2021/01/08 06:13:11;;;;;;;5.85;4.00;;;1.40;99.90;;;;;;5046564;28;20472;-75
2021/01/08 06:15:38;;;;;;;6.03;3.83;;;1.80;99.90;;;;;;5043140;28;20389;-76
2021/01/08 06:18:05;;;;;;;4.60;3.60;;;1.10;99.90;;;;;;5044524;28;20385;-75
2021/01/08 06:20:31;;;;;;;3.38;3.08;;;1.20;99.90;;;;;;5040423;28;20385;-75
2021/01/08 06:22:57;;;;;;;4.70;3.80;;;1.00;99.90;;;;;;5042608;28;20423;-74
2021/01/08 06:25:26;;;;;;;5.72;4.22;;;1.20;99.90;;;;;;5043774;28;20401;-75
2021/01/08 06:27:57;;;;;;;5.38;3.58;;;1.20;99.90;;;;;;5043812;28;20476;-75
2021/01/08 06:30:27;;;;;;;5.10;3.70;;;2.60;99.90;;;;;;5041891;28;20423;-74
2021/01/08 06:33:02;;;;;;;5.78;4.25;;;0.50;99.90;;;;;;5041671;28;20413;-76
2021/01/08 06:35:31;;;;;;;5.45;3.85;;;1.10;99.90;;;;;;5043422;28;20382;-74
2021/01/08 06:37:59;;;;;;;5.88;4.70;;;2.50;99.90;;;;;;5043597;28;20370;-75
2021/01/08 06:40:38;;;;;;;7.20;4.75;;;1.70;99.90;;;;;;5040486;28;20415;-74
2021/01/08 06:43:16;;;;;;;6.13;4.32;;;1.30;99.90;;;;;;5041709;28;20507;-75
2021/01/08 06:45:52;;;;;;;6.20;3.97;;;1.00;99.90;;;;;;5042358;28;20421;-75
2021/01/08 06:48:23;;;;;;;7.00;4.40;;;0.90;99.90;;;;;;5044172;28;20459;-75
2021/01/08 06:50:54;;;;;;;4.70;4.20;;;0.60;99.90;;;;;;5038699;28;20385;-74
2021/01/08 06:53:25;;;;;;;6.95;4.05;;;1.20;99.90;;;;;;5041479;28;20390;-75
2021/01/08 06:55:54;;;;;;;6.10;4.20;;;2.00;99.90;;;;;;5041689;28;20409;-76
2021/01/08 06:58:20;;;;;;;5.40;4.40;;;0.90;99.90;;;;;;5042571;28;20778;-75
2021/01/08 07:00:51;;;;;;;8.23;5.13;;;3.00;99.90;;;;;;5039848;28;20500;-74
2021/01/08 07:03:20;;;;;;;5.72;4.47;;;1.90;99.90;;;;;;5042199;28;20417;-75
2021/01/08 07:05:48;;;;;;;6.60;4.20;;;2.90;99.90;;;;;;5042398;28;20475;-76
2021/01/08 07:08:15;;;;;;;6.50;4.30;;;0.80;99.90;;;;;;5043759;28;20860;-76
2021/01/08 07:10:40;;;;;;;4.72;3.90;;;1.00;99.90;;;;;;5039132;28;20386;-77
2021/01/08 07:13:06;;;;;;;5.00;3.70;;;0.80;99.90;;;;;;5045945;28;20897;-75
2021/01/08 07:15:33;;;;;;;7.33;4.30;;;1.00;99.90;;;;;;5050371;28;20861;-75
2021/01/08 07:17:59;;;;;;;5.93;4.10;;;1.00;99.90;;;;;;5050591;28;20378;-76
2021/01/08 07:20:26;;;;;;;6.23;3.90;;;0.80;99.90;;;;;;5051592;28;20385;-75
2021/01/08 07:22:54;;;;;;;5.90;3.95;;;1.00;99.90;;;;;;5050603;28;20402;-75
2021/01/08 07:25:24;;;;;;;6.20;4.20;;;2.90;99.90;;;;;;5050880;28;20881;-76
2021/01/08 07:27:51;;;;;;;5.70;4.47;;;0.70;99.90;;;;;;5050317;28;20447;-75
2021/01/08 07:30:17;;;;;;;4.72;4.03;;;1.50;99.90;;;;;;5051385;28;20394;-75
2021/01/08 07:32:44;;;;;;;5.55;4.20;;;1.30;99.90;;;;;;5047686;28;20392;-75
2021/01/08 07:35:31;;;;;;;7.20;4.30;;;1.70;99.90;;;;;;5050943;28;20425;-75
2021/01/08 07:38:07;;;;;;;7.55;4.88;;;2.60;99.90;;;;;;5051927;28;20390;-75
2021/01/08 07:40:37;;;;;;;5.17;3.83;;;1.30;99.90;;;;;;5052009;28;21055;-75
2021/01/08 07:43:07;;;;;;;4.55;3.20;;;3.40;99.90;;;;;;5051638;28;20398;-75
2021/01/08 07:45:58;;;;;;;6.00;3.60;;;1.20;99.90;;;;;;5053474;28;20396;-75
2021/01/08 07:48:31;;;;;;;5.23;3.73;;;1.30;99.90;;;;;;5052838;28;20440;-75
2021/01/08 07:51:14;;;;;;;4.35;3.75;;;1.30;99.90;;;;;;5050470;28;20734;-71
2021/01/08 07:53:45;;;;;;;3.50;3.20;;;3.70;99.90;;;;;;5054372;28;20766;-77
2021/01/08 07:56:14;;;;;;;5.07;3.42;;;3.60;99.90;;;;;;5054206;28;20386;-76
2021/01/08 07:58:40;;;;;;;4.82;3.75;;;1.20;99.90;;;;;;5053397;28;20417;-77
2021/01/08 08:01:08;;;;;;;6.28;3.60;;;1.00;99.90;;;;;;5052789;28;20397;-76
2021/01/08 08:03:34;;;;;;;5.05;3.70;;;2.40;99.90;;;;;;5048388;28;20492;-76
2021/01/08 08:06:01;;;;;;;6.05;3.70;;;2.70;99.90;;;;;;5051405;28;20644;-76
2021/01/08 08:08:27;;;;;;;4.38;3.58;;;1.40;99.90;;;;;;5050347;28;20389;-77
2021/01/08 08:10:53;;;;;;;4.55;3.90;;;1.10;99.90;;;;;;5050031;28;20427;-76
2021/01/08 08:13:29;;;;;;;5.88;3.63;;;2.70;99.90;;;;;;5058613;28;20490;-76
2021/01/08 08:15:55;;;;;;;4.55;3.50;;;1.40;99.90;;;;;;5050495;28;20745;-76
2021/01/08 08:18:21;;;;;;;3.33;3.03;;;3.00;99.90;;;;;;5052541;28;20377;-76
2021/01/08 08:20:46;;;;;;;3.70;3.10;;;1.40;99.90;;;;;;5051955;28;20388;-77
2021/01/08 08:23:18;;;;;;;5.80;3.75;;;1.30;99.90;;;;;;5052291;28;20409;-76
2021/01/08 08:25:45;;;;;;;4.25;3.60;;;1.20;99.90;;;;;;5054537;28;20434;-78
2021/01/08 08:28:11;;;;;;;4.18;3.40;;;1.30;99.90;;;;;;5050809;28;20382;-76
2021/01/08 08:30:37;;;;;;;4.38;3.67;;;1.40;99.90;;;;;;5051566;28;20842;-76
2021/01/08 08:33:06;;;;;;;3.47;2.90;;;1.10;99.90;;;;;;5050454;28;20466;-76
2021/01/08 08:35:35;;;;;;;5.93;4.05;;;1.40;99.90;;;;;;5051717;28;20417;-76
2021/01/08 08:38:01;;;;;;;6.00;4.30;;;1.40;99.90;;;;;;5050736;28;20384;-76
2021/01/08 08:40:28;;;;;;;4.88;3.88;;;2.30;99.90;;;;;;5051128;28;20484;-76
2021/01/08 08:42:59;;;;;;;5.47;4.05;;;1.50;99.90;;;;;;5047955;28;20417;-76
2021/01/08 08:45:26;;;;;;;4.85;3.83;;;1.60;99.90;;;;;;5051307;28;20391;-76
2021/01/08 08:47:56;;;;;;;4.20;3.80;;;2.80;99.90;;;;;;5050381;28;20782;-76
2021/01/08 08:50:23;;;;;;;4.97;3.50;;;1.80;99.90;;;;;;5051500;28;20468;-76
2021/01/08 08:52:50;;;;;;;4.65;3.22;;;1.30;99.90;;;;;;5050676;28;20733;-76
2021/01/08 08:55:29;;;;;;;4.43;3.40;;;1.50;99.90;;;;;;5051499;28;20392;-75
2021/01/08 08:58:15;;;;;;;3.63;3.30;;;3.10;99.90;;;;;;5047987;28;20392;-75
2021/01/08 09:00:42;;;;;;;5.35;3.20;;;2.90;99.90;;;;;;5064707;28;20870;-75
2021/01/08 09:03:21;;;;;;;4.60;3.83;;;3.80;99.90;;;;;;5054433;28;20833;-75
2021/01/08 09:05:48;;;;;;;3.65;3.10;;;1.80;99.90;;;;;;5046892;28;20426;-76
2021/01/08 09:08:36;;;;;;;4.97;3.70;;;3.80;99.90;;;;;;5051016;28;20381;-75
2021/01/08 09:11:28;;;;;;;4.72;3.63;;;2.30;99.90;;;;;;5049081;28;20460;-75
2021/01/08 09:13:55;;;;;;;4.37;3.20;;;3.60;99.90;;;;;;5048385;28;20554;-75
2021/01/08 09:16:34;;;;;;;4.50;3.80;;;1.60;99.90;;;;;;5050641;28;20386;-75
2021/01/08 09:19:06;;;;;;;3.90;2.85;;;;;;;;;;5048888;28;20464;-76
2021/01/08 09:21:36;;;;;;;4.75;3.58;;;1.70;99.90;;;;;;5047600;28;20374;-76
2021/01/08 09:24:05;;;;;;;4.77;3.70;;;2.50;99.90;;;;;;5049914;28;20527;-76
2021/01/08 09:26:31;;;;;;;5.22;3.92;;;1.90;99.90;;;;;;5047988;28;20459;-76
2021/01/08 09:28:57;;;;;;;4.43;3.50;;;2.80;99.90;;;;;;5050063;28;20481;-76
2021/01/08 09:31:43;;;;;;;4.03;3.60;;;2.20;99.90;;;;;;5050264;28;20876;-75
2021/01/08 09:34:09;;;;;;;4.93;3.33;;;1.80;99.90;;;;;;5050913;28;20468;-76
2021/01/08 09:36:39;;;;;;;3.43;3.07;;;2.20;99.90;;;;;;5051910;28;20386;-76
2021/01/08 09:39:10;;;;;;;4.93;3.53;;;1.70;99.90;;;;;;5057487;28;20435;-76
2021/01/08 09:41:40;;;;;;;3.67;3.33;;;2.60;99.90;;;;;;5068022;28;20409;-76
2021/01/08 09:44:08;;;;;;;4.25;3.30;;;4.00;99.90;;;;;;5063005;28;20400;-76
2021/01/08 09:46:57;;;;;;;5.88;3.90;;;3.40;99.90;;;;;;5073153;28;20436;-76
2021/01/08 09:49:23;;;;;;;5.75;4.50;;;2.20;99.90;;;;;;5034451;28;20428;-76
2021/01/08 09:52:02;;;;;;;3.87;3.50;;;2.00;99.90;;;;;;5050067;28;20441;-78
2021/01/08 09:54:54;;;;;;;4.85;3.67;;;2.50;99.90;;;;;;5059705;28;20400;-76
2021/01/08 09:57:30;;;;;;;4.72;3.47;;;3.10;99.90;;;;;;5043167;28;20402;-75
2021/01/08 10:00:00;;;;;;;6.40;3.75;;;3.50;99.90;;;;;;5062975;28;20425;-76
2021/01/08 10:02:39;;;;;;;5.75;4.20;;;2.30;99.90;;;;;;5066963;28;20423;-75
2021/01/08 10:05:26;;;;;;;4.55;4.05;;;2.20;99.90;;;;;;5033723;28;20451;-76
2021/01/08 10:07:53;;;;;;;5.47;4.18;;;2.80;99.90;;;;;;5034157;28;20409;-77
2021/01/08 10:10:27;;;;;;;8.68;4.20;;;2.50;99.90;;;;;;5034294;28;20391;-75
2021/01/08 10:12:55;;;;;;;5.30;4.20;;;2.90;99.90;;;;;;5033551;28;20398;-77
2021/01/08 10:15:35;;;;;;;5.03;4.10;;;2.20;99.90;;;;;;5034350;28;20394;-75
2021/01/08 10:18:17;;;;;;;4.60;3.83;;;2.50;99.90;;;;;;5033541;28;20428;-75
2021/01/08 10:20:49;;;;;;;5.50;4.18;;;2.10;99.90;;;;;;5033894;28;20434;-76
2021/01/08 10:23:17;;;;;;;4.90;4.00;;;3.10;99.90;;;;;;5033308;28;20465;-75
2021/01/08 10:25:43;;;;;;;5.40;3.70;;;2.60;99.90;;;;;;5034077;28;20910;-81
2021/01/08 10:28:15;;;;;;;5.35;4.00;;;2.40;99.90;;;;;;5033432;28;20394;-75
2021/01/08 10:30:41;;;;;;;3.77;3.37;;;3.00;99.90;;;;;;5034190;28;20554;-75
2021/01/08 10:33:08;;;;;;;4.20;3.40;;;2.50;99.90;;;;;;5031660;28;20744;-75
2021/01/08 10:35:34;;;;;;;4.43;3.57;;;2.70;99.90;;;;;;5033816;28;20387;-75
2021/01/08 10:38:00;;;;;;;4.78;3.58;;;3.20;99.90;;;;;;5032801;28;20465;-75
2021/01/08 10:40:26;;;;;;;4.65;3.08;;;2.80;99.90;;;;;;5034402;28;20410;-75
2021/01/08 10:42:53;;;;;;;4.15;3.40;;;4.80;99.90;;;;;;5032806;28;20430;-77
2021/01/08 10:45:19;;;;;;;5.65;3.83;;;3.40;99.90;;;;;;5037638;28;20397;-75
2021/01/08 10:47:45;;;;;;;4.60;3.30;;;2.90;99.90;;;;;;5053066;28;20374;-74
2021/01/08 10:50:12;;;;;;;4.25;3.40;;;3.20;99.90;;;;;;5053014;28;20769;-74
2021/01/08 10:52:37;;;;;;;4.90;3.70;;;2.80;99.90;;;;;;5053262;28;20920;-74
2021/01/08 10:55:05;;;;;;;4.95;3.55;;;4.60;99.90;;;;;;5052717;28;20476;-75
2021/01/08 10:57:31;;;;;;;4.00;2.88;;;2.80;99.90;;;;;;5052099;28;20461;-75
2021/01/08 10:59:57;;;;;;;5.40;3.90;;;3.20;99.90;;;;;;5051376;28;20382;-75
2021/01/08 11:02:23;;;;;;;4.70;3.45;;;3.70;99.90;;;;;;5053454;28;20436;-75
2021/01/08 11:04:48;;;;;;;5.45;3.20;;;2.90;99.90;;;;;;5053394;28;20381;-76
2021/01/08 11:07:14;;;;;;;3.40;3.10;;;4.20;99.90;;;;;;5052347;28;20439;-76
2021/01/08 11:09:40;;;;;;;4.40;2.70;;;3.30;99.90;;;;;;5052155;28;20389;-75
2021/01/08 11:12:06;;;;;;;4.35;3.25;;;4.80;99.90;;;;;;5052365;28;20943;-76
2021/01/08 11:14:32;;;;;;;3.95;3.10;;;3.60;99.90;;;;;;5052977;28;20431;-75
2021/01/08 11:16:58;;;;;;;4.20;3.65;;;5.90;99.90;;;;;;5052146;28;20385;-73
2021/01/08 11:19:24;;;;;;;4.93;3.40;;;3.10;99.90;;;;;;5053306;28;20394;-76
2021/01/08 11:21:55;;;;;;;3.92;3.15;;;3.70;99.90;;;;;;5052855;28;20421;-76
2021/01/08 11:24:21;;;;;;;3.85;2.72;;;3.90;99.90;;;;;;5052959;28;20390;-75
2021/01/08 11:26:47;;;;;;;4.63;2.90;;;6.00;99.90;;;;;;5051848;28;20392;-75
2021/01/08 11:29:13;;;;;;;3.50;3.03;;;4.30;99.90;;;;;;5052195;28;20373;-76
2021/01/08 11:31:40;;;;;;;4.75;3.20;;;3.90;99.90;;;;;;5052625;28;20888;-75
2021/01/08 11:34:06;;;;;;;5.38;3.15;;;5.90;99.90;;;;;;5052040;28;20400;-75
2021/01/08 11:36:32;;;;;;;4.80;3.90;;;5.60;99.90;;;;;;5052831;28;20606;-75
2021/01/08 11:38:58;;;;;;;6.00;3.20;;;4.00;99.90;;;;;;5052098;28;20475;-77
2021/01/08 11:41:24;;;;;;;5.68;3.80;;;4.80;99.90;;;;;;5052928;28;20412;-75
2021/01/08 11:43:50;;;;;;;3.90;3.30;;;4.30;99.90;;;;;;5052155;28;20413;-75
2021/01/08 11:46:17;;;;;;;4.18;3.67;;;5.60;99.90;;;;;;5051493;28;20399;-76
2021/01/08 11:48:43;;;;;;;4.20;3.50;;;5.50;99.90;;;;;;5052728;28;20476;-76
2021/01/08 11:51:13;;;;;;;4.10;3.50;;;4.60;99.90;;;;;;5051625;28;20465;-76
2021/01/08 11:53:42;;;;;;;5.87;3.40;;;5.20;99.90;;;;;;5052252;28;20381;-76
2021/01/08 11:56:09;;;;;;;5.20;3.40;;;4.10;99.90;;;;;;5051622;28;20389;-76
2021/01/08 11:58:38;;;;;;;7.68;3.70;;;5.20;99.90;;;;;;5050995;28;20932;-76
2021/01/08 12:01:05;;;;;;;4.53;3.70;;;4.30;99.90;;;;;;5051836;28;20382;-76
2021/01/08 12:03:40;;;;;;;5.20;3.58;;;4.30;99.90;;;;;;5051890;28;20421;-76
2021/01/08 12:06:07;;;;;;;4.10;3.25;;;4.40;99.90;;;;;;5049733;28;20394;-76
2021/01/08 12:08:33;;;;;;;6.10;4.03;;;4.30;99.90;;;;;;5051892;28;20425;-76
2021/01/08 12:11:02;;;;;;;4.55;3.72;;;3.80;99.90;;;;;;5051116;28;20461;-78
2021/01/08 12:13:28;;;;;;;6.63;4.00;;;3.80;99.90;;;;;;5051645;28;20731;-76
2021/01/08 12:15:54;;;;;;;3.88;3.38;;;5.70;99.90;;;;;;5051768;28;20388;-76
2021/01/08 12:18:20;;;;;;;5.80;3.92;;;5.00;99.90;;;;;;5050930;28;20460;-76
2021/01/08 12:20:46;;;;;;;5.18;3.92;;;4.50;99.90;;;;;;5050615;28;20373;-76
2021/01/08 12:23:15;;;;;;;4.30;3.40;;;5.00;99.90;;;;;;5049473;28;20405;-74
2021/01/08 12:25:41;;;;;;;6.05;4.13;;;5.90;98.70;;;;;;5051813;28;20468;-73
2021/01/08 12:28:08;;;;;;;5.87;4.87;;;6.70;98.00;;;;;;5051474;28;20393;-75
2021/01/08 12:30:35;;;;;;;5.13;4.18;;;6.20;95.90;;;;;;5051502;28;20876;-75
2021/01/08 12:33:01;;;;;;;4.85;4.15;;;8.00;94.10;;;;;;5051241;28;20393;-76
2021/01/08 12:35:27;;;;;;;5.80;4.10;;;6.30;94.50;;;;;;5051899;28;20846;-74
2021/01/08 12:37:53;;;;;;;6.70;5.00;;;8.20;98.90;;;;;;5050208;28;20389;-75
2021/01/08 12:40:20;;;;;;;4.75;3.75;;;6.70;92.60;;;;;;5050305;28;20427;-74
2021/01/08 12:42:47;;;;;;;6.30;4.60;;;6.20;90.30;;;;;;5051429;28;20448;-74
2021/01/08 12:45:14;;;;;;;4.82;3.78;;;5.50;92.90;;;;;;5050558;28;20390;-74
2021/01/08 12:47:40;;;;;;;5.40;4.10;;;5.40;92.50;;;;;;5051334;28;20814;-74
2021/01/08 12:50:07;;;;;;;4.82;3.92;;;5.70;94.20;;;;;;5050629;28;20472;-74
2021/01/08 12:52:33;;;;;;;4.65;3.67;;;5.60;94.70;;;;;;5050790;28;20718;-75
2021/01/08 12:54:58;;;;;;;6.18;4.32;;;5.20;95.30;;;;;;5050177;28;20444;-76
2021/01/08 12:57:24;;;;;;;5.90;4.00;;;5.40;97.50;;;;;;5050392;28;20394;-75
2021/01/08 12:59:50;;;;;;;6.05;3.92;;;6.90;99.90;;;;;;5050911;28;20381;-75
2021/01/08 13:02:16;;;;;;;6.13;4.15;;;4.90;99.70;;;;;;5050251;28;20405;-75